Time;durP1;ratioP1;P1;durP2;ratioP2;P2;SDS_P1;SDS_P2;PMS_P1;PMS_P2;Temp;Humidity;BMP_temperature;BMP_pressure;BME280_temperature;BME280_humidity;BME280_pressure;Samples;Min_cycle;Max_cycle;Signal;HPM_P1;HPM_P2
2022/10/26 00:01:05;;;;;;;;;;;19.40;95.50;;;;;;4956615;29;19926;-68
2022/10/26 00:03:31;;;;;;;;;;;19.40;95.40;;;;;;4938970;29;19927;-68
2022/10/26 00:06:01;;;;;;;;;;;19.20;95.30;;;;;;4922451;29;19950;-69
2022/10/26 00:08:27;;;;;;;;;;;19.20;95.30;;;;;;4939167;29;20292;-68
2022/10/26 00:10:55;;;;;;;;;;;19.30;95.50;;;;;;4955601;29;20009;-68
2022/10/26 00:13:21;;;;;;;;;;;19.20;95.30;;;;;;4952907;29;19926;-68
2022/10/26 00:15:47;;;;;;;;;;;19.20;95.30;;;;;;4954006;28;20052;-69
2022/10/26 00:18:12;;;;;;;;;;;19.00;95.30;;;;;;4961032;28;20012;-67
2022/10/26 00:20:38;;;;;;;;;;;17.60;95.00;;;;;;4946686;29;19927;-69
2022/10/26 00:23:04;;;;;;;;;;;19.30;95.30;;;;;;4951963;29;20373;-68
2022/10/26 00:25:29;;;;;;;;;;;19.30;95.30;;;;;;4953902;29;20289;-69
2022/10/26 00:27:55;;;;;;;;;;;19.10;95.20;;;;;;4930700;29;19923;-69
2022/10/26 00:30:20;;;;;;;;;;;19.30;95.20;;;;;;4929807;29;20344;-68
2022/10/26 00:32:46;;;;;;;;;;;19.00;95.10;;;;;;4938384;29;19930;-68
2022/10/26 00:35:11;;;;;;;;;;;19.00;95.10;;;;;;4953892;29;19926;-68
2022/10/26 00:37:37;;;;;;;;;;;19.10;95.10;;;;;;4920619;29;19934;-68
2022/10/26 00:40:03;;;;;;;;;;;19.10;95.10;;;;;;4952386;29;20033;-68
2022/10/26 00:42:29;;;;;;;;;;;19.10;95.10;;;;;;4938972;29;19926;-68
2022/10/26 00:44:56;;;;;;;;;;;19.00;95.10;;;;;;4935726;29;19965;-68
2022/10/26 00:47:22;;;;;;;;;;;19.20;95.10;;;;;;4938468;29;19926;-68
2022/10/26 00:49:48;;;;;;;;;;;19.10;95.10;;;;;;4954828;29;19934;-68
2022/10/26 00:52:13;;;;;;;;;;;19.00;95.00;;;;;;4922948;29;20415;-68
2022/10/26 00:54:39;;;;;;;;;;;18.70;95.00;;;;;;4938367;29;19930;-68
2022/10/26 00:57:05;;;;;;;;;;;19.30;95.10;;;;;;4957077;28;19933;-68
2022/10/26 00:59:30;;;;;;;;;;;19.10;95.10;;;;;;4955288;29;19926;-68
2022/10/26 01:01:56;;;;;;;;;;;19.00;95.00;;;;;;4955513;29;19926;-68
2022/10/26 01:04:21;;;;;;;;;;;18.90;95.00;;;;;;4938328;29;19934;-68
2022/10/26 01:06:47;;;;;;;;;;;19.10;95.00;;;;;;4938175;29;20292;-68
2022/10/26 01:09:13;;;;;;;;;;;19.00;95.00;;;;;;4921821;29;20017;-68
2022/10/26 01:11:38;;;;;;;;;;;19.10;95.00;;;;;;4955636;29;19926;-68
2022/10/26 01:14:05;;;;;;;;;;;19.00;95.00;;;;;;4937708;29;19927;-68
2022/10/26 01:16:37;;;;;;;;;;;18.90;94.90;;;;;;4921714;29;20308;-68
2022/10/26 01:19:06;;;;;;;;;;;19.10;95.00;;;;;;4937544;29;19927;-68
2022/10/26 01:21:36;;;;;;;;;;;19.10;95.00;;;;;;4955119;29;19949;-68
2022/10/26 01:24:14;;;;;;;;;;;19.10;95.00;;;;;;4932994;29;20017;-67
2022/10/26 01:26:58;;;;;;;;;;;19.00;95.00;;;;;;4936898;29;20400;-68
2022/10/26 01:29:27;;;;;;;;;;;18.90;95.00;;;;;;4937458;29;19996;-68
2022/10/26 01:31:54;;;;;;;;;;;18.90;95.00;;;;;;4937193;29;20427;-68
2022/10/26 01:34:21;;;;;;;;;;;18.90;95.00;;;;;;4917548;29;20397;-68
2022/10/26 01:36:48;;;;;;;;;;;19.20;95.00;;;;;;4953588;29;19930;-67
2022/10/26 01:39:21;;;;;;;;;;;19.10;95.00;;;;;;4921922;29;19933;-68
2022/10/26 01:41:47;;;;;;;;;;;19.30;95.00;;;;;;4938358;29;19985;-67
2022/10/26 01:44:16;;;;;;;;;;;19.20;95.00;;;;;;4921262;29;19933;-68
2022/10/26 01:46:42;;;;;;;;;;;19.20;95.00;;;;;;4922394;29;20107;-68
2022/10/26 01:49:09;;;;;;;;;;;19.10;95.00;;;;;;4930935;29;19932;-68
2022/10/26 01:51:34;;;;;;;;;;;18.90;94.90;;;;;;4931680;29;20006;-68
2022/10/26 01:54:00;;;;;;;;;;;18.90;94.90;;;;;;4937355;29;20328;-67
2022/10/26 01:56:26;;;;;;;;;;;19.00;94.90;;;;;;4955204;29;19934;-68
2022/10/26 01:58:52;;;;;;;;;;;19.10;94.90;;;;;;4937976;29;19978;-68
2022/10/26 02:01:17;;;;;;;;;;;19.00;94.90;;;;;;4954048;29;20095;-68
2022/10/26 02:03:50;;;;;;;;;;;18.90;94.90;;;;;;4937401;29;20392;-68
2022/10/26 02:06:21;;;;;;;;;;;19.10;94.90;;;;;;4937342;29;19982;-69
2022/10/26 02:09:07;;;;;;;;;;;18.80;94.80;;;;;;4930708;29;19926;-68
2022/10/26 02:11:45;;;;;;;;;;;19.00;94.80;;;;;;4946852;29;20406;-68
2022/10/26 02:14:32;;;;;;;;;;;19.10;94.90;;;;;;4921257;29;20405;-69
2022/10/26 02:17:01;;;;;;;;;;;18.80;94.80;;;;;;4921681;29;19982;-68
2022/10/26 02:19:31;;;;;;;;;;;19.10;94.90;;;;;;4935362;29;19934;-68
2022/10/26 02:22:05;;;;;;;;;;;19.00;94.80;;;;;;4948723;29;19934;-68
2022/10/26 02:24:31;;;;;;;;;;;18.80;94.80;;;;;;4921515;29;19926;-69
2022/10/26 02:26:57;;;;;;;;;;;19.00;94.80;;;;;;4936114;29;19934;-69
2022/10/26 02:29:23;;;;;;;;;;;18.90;94.80;;;;;;4924982;29;20308;-68
2022/10/26 02:31:48;;;;;;;;;;;18.80;94.80;;;;;;4920624;29;20423;-68
2022/10/26 02:34:15;;;;;;;;;;;18.80;94.80;;;;;;4937369;29;20316;-68
2022/10/26 02:36:41;;;;;;;;;;;18.90;94.80;;;;;;4938286;29;20057;-68
2022/10/26 02:39:07;;;;;;;;;;;19.10;94.80;;;;;;4937095;29;19927;-68
2022/10/26 02:41:32;;;;;;;;;;;19.00;94.80;;;;;;4939567;28;19922;-68
2022/10/26 02:44:24;;;;;;;;;;;19.00;94.80;;;;;;4935404;29;19927;-68
2022/10/26 02:46:50;;;;;;;;;;;19.00;94.50;;;;;;4939374;29;20303;-68
2022/10/26 02:49:16;;;;;;;;;;;19.10;94.80;;;;;;4940850;29;19927;-67
2022/10/26 02:51:45;;;;;;;;;;;19.00;94.80;;;;;;4957530;28;19982;-68
2022/10/26 02:54:14;;;;;;;;;;;19.00;94.80;;;;;;4939701;29;19933;-68
2022/10/26 02:56:59;;;;;;;;;;;19.20;94.80;;;;;;4957389;28;19930;-68
2022/10/26 02:59:25;;;;;;;;;;;18.90;94.70;;;;;;4920278;29;19934;-67
2022/10/26 03:01:51;;;;;;;;;;;18.70;94.70;;;;;;4934477;29;19926;-67
2022/10/26 03:04:16;;;;;;;;;;;19.00;94.80;;;;;;4940371;29;19926;-67
2022/10/26 03:06:50;;;;;;;;;;;18.90;94.70;;;;;;4956989;28;20375;-68
2022/10/26 03:09:15;;;;;;;;;;;18.90;94.70;;;;;;4947400;29;20410;-68
2022/10/26 03:11:41;;;;;;;;;;;18.90;94.80;;;;;;4939554;29;20029;-68
2022/10/26 03:14:07;;;;;;;;;;;19.10;94.80;;;;;;4939399;29;19927;-68
2022/10/26 03:16:32;;;;;;;;;;;18.80;94.70;;;;;;4955696;28;19923;-68
2022/10/26 03:18:58;;;;;;;;;;;19.00;94.80;;;;;;4939591;28;19977;-68
2022/10/26 03:21:23;;;;;;;;;;;19.10;94.90;;;;;;4957398;29;19958;-68
2022/10/26 03:23:50;;;;;;;;;;;19.10;95.00;;;;;;4956774;29;20395;-68
2022/10/26 03:26:16;;;;;;;;;;;18.90;94.90;;;;;;4957158;28;19927;-68
2022/10/26 03:28:41;;;;;;;;;;;19.00;94.90;;;;;;4939881;29;19933;-67
2022/10/26 03:31:07;;;;;;;;;;;18.80;94.70;;;;;;4939775;29;19926;-67
2022/10/26 03:33:32;;;;;;;;;;;18.90;94.60;;;;;;4923948;29;19933;-67
2022/10/26 03:35:58;;;;;;;;;;;19.10;94.70;;;;;;4957745;28;19923;-67
2022/10/26 03:38:24;;;;;;;;;;;18.80;94.70;;;;;;4939052;29;19933;-68
2022/10/26 03:40:49;;;;;;;;;;;18.90;94.40;;;;;;4955398;28;19930;-68
2022/10/26 03:43:15;;;;;;;;;;;18.60;94.30;;;;;;4955624;29;19982;-68
2022/10/26 03:45:40;;;;;;;;;;;18.90;94.60;;;;;;4939702;29;19934;-68
2022/10/26 03:48:06;;;;;;;;;;;18.90;94.50;;;;;;4938781;29;20005;-69
2022/10/26 03:50:31;;;;;;;;;;;18.80;94.50;;;;;;4956279;28;19933;-69
2022/10/26 03:52:57;;;;;;;;;;;18.80;94.60;;;;;;4956283;29;19927;-68
2022/10/26 03:55:23;;;;;;;;;;;18.70;94.40;;;;;;4956263;29;19930;-68
2022/10/26 03:57:48;;;;;;;;;;;18.70;94.40;;;;;;4938421;29;19934;-68
2022/10/26 04:00:15;;;;;;;;;;;18.80;94.40;;;;;;4956134;28;19964;-69
2022/10/26 04:02:47;;;;;;;;;;;18.60;94.20;;;;;;4956586;29;19961;-69
2022/10/26 04:05:13;;;;;;;;;;;18.90;94.40;;;;;;4956751;29;19933;-68
2022/10/26 04:07:38;;;;;;;;;;;18.90;94.40;;;;;;4956140;29;19927;-68
2022/10/26 04:10:04;;;;;;;;;;;18.80;94.40;;;;;;4961826;28;19934;-67
2022/10/26 04:12:30;;;;;;;;;;;18.50;94.20;;;;;;4937590;29;20018;-67
2022/10/26 04:14:57;;;;;;;;;;;18.60;94.30;;;;;;4954477;29;20389;-68
2022/10/26 04:17:23;;;;;;;;;;;18.70;94.20;;;;;;4937935;29;19977;-68
2022/10/26 04:19:48;;;;;;;;;;;18.70;94.20;;;;;;4954480;28;19927;-69
2022/10/26 04:22:14;;;;;;;;;;;18.80;94.40;;;;;;4937895;29;19926;-69
2022/10/26 04:24:40;;;;;;;;;;;18.40;94.30;;;;;;4938608;29;19965;-69
2022/10/26 04:27:05;;;;;;;;;;;18.80;94.40;;;;;;4930187;29;20305;-69
2022/10/26 04:29:31;;;;;;;;;;;18.80;94.30;;;;;;4954109;29;19936;-68
2022/10/26 04:31:57;;;;;;;;;;;18.70;94.30;;;;;;4955551;28;19930;-69
2022/10/26 04:34:22;;;;;;;;;;;18.80;94.20;;;;;;4955545;29;20409;-69
2022/10/26 04:36:48;;;;;;;;;;;18.80;94.30;;;;;;4938284;29;19929;-68
2022/10/26 04:39:13;;;;;;;;;;;18.80;94.30;;;;;;4955646;29;19973;-69
2022/10/26 04:41:39;;;;;;;;;;;18.70;94.20;;;;;;4955007;28;20048;-69
2022/10/26 04:44:05;;;;;;;;;;;18.90;94.20;;;;;;4936785;28;19926;-68
2022/10/26 04:46:30;;;;;;;;;;;18.40;94.10;;;;;;4938267;29;19930;-68
2022/10/26 04:48:56;;;;;;;;;;;18.60;94.10;;;;;;4938079;29;20344;-69
2022/10/26 04:51:21;;;;;;;;;;;18.50;94.10;;;;;;4950192;28;19966;-68
2022/10/26 04:53:47;;;;;;;;;;;18.50;94.10;;;;;;4924310;28;20027;-68
2022/10/26 04:56:13;;;;;;;;;;;18.50;94.10;;;;;;4938233;29;19927;-69
2022/10/26 04:58:38;;;;;;;;;;;18.60;94.10;;;;;;4954635;29;20309;-68
2022/10/26 05:01:04;;;;;;;;;;;18.50;94.00;;;;;;4954380;28;20009;-67
2022/10/26 05:03:30;;;;;;;;;;;18.50;94.00;;;;;;4945520;28;20299;-68
2022/10/26 05:05:58;;;;;;;;;;;18.70;94.10;;;;;;4937871;29;19927;-69
2022/10/26 05:08:25;;;;;;;;;;;18.30;94.10;;;;;;4955419;29;19927;-69
2022/10/26 05:10:51;;;;;;;;;;;18.60;94.10;;;;;;4933149;29;19989;-68
2022/10/26 05:13:17;;;;;;;;;;;18.50;94.30;;;;;;4937634;28;19927;-68
2022/10/26 05:15:43;;;;;;;;;;;18.50;94.30;;;;;;4954097;29;19926;-68
2022/10/26 05:18:08;;;;;;;;;;;18.60;94.30;;;;;;4955321;29;19981;-68
2022/10/26 05:20:34;;;;;;;;;;;18.70;94.30;;;;;;4954833;29;19927;-68
2022/10/26 05:23:00;;;;;;;;;;;18.50;94.30;;;;;;4938812;29;19938;-69
2022/10/26 05:25:26;;;;;;;;;;;18.60;94.30;;;;;;4949300;28;19933;-69
2022/10/26 05:27:56;;;;;;;;;;;18.70;94.30;;;;;;4954646;28;20012;-69
2022/10/26 05:30:21;;;;;;;;;;;18.70;94.30;;;;;;4955085;29;20017;-68
2022/10/26 05:32:56;;;;;;;;;;;18.50;94.30;;;;;;4953700;29;20385;-68
2022/10/26 05:35:22;;;;;;;;;;;18.70;94.30;;;;;;4937895;29;19970;-68
2022/10/26 05:37:47;;;;;;;;;;;18.50;94.20;;;;;;4955156;29;20312;-68
2022/10/26 05:40:14;;;;;;;;;;;18.80;94.30;;;;;;4937119;29;19997;-69
2022/10/26 05:42:40;;;;;;;;;;;18.60;94.20;;;;;;4954088;29;20013;-68
2022/10/26 05:45:05;;;;;;;;;;;18.50;94.10;;;;;;4936718;29;20058;-68
2022/10/26 05:47:31;;;;;;;;;;;18.50;94.10;;;;;;4937116;28;20076;-68
2022/10/26 05:49:57;;;;;;;;;;;18.70;94.10;;;;;;4954615;29;20455;-68
2022/10/26 05:52:22;;;;;;;;;;;18.60;94.10;;;;;;4955115;29;20427;-68
2022/10/26 05:54:48;;;;;;;;;;;18.50;94.10;;;;;;4954154;29;20013;-68
2022/10/26 05:57:14;;;;;;;;;;;18.50;94.20;;;;;;4955424;28;19982;-67
2022/10/26 05:59:40;;;;;;;;;;;18.40;94.10;;;;;;4954263;29;19931;-68
2022/10/26 06:02:18;;;;;;;;;;;18.50;94.00;;;;;;4955266;29;19926;-67
2022/10/26 06:04:46;;;;;;;;;;;18.70;94.10;;;;;;4921615;29;20017;-68
2022/10/26 06:07:13;;;;;;;;;;;18.60;94.10;;;;;;4954207;28;19998;-67
2022/10/26 06:09:39;;;;;;;;;;;;;;;;;;4954591;28;20286;-69
2022/10/26 06:12:06;;;;;;;;;;;18.80;94.20;;;;;;4937382;29;19933;-68
2022/10/26 06:14:32;;;;;;;;;;;18.80;94.20;;;;;;4956499;28;19926;-68
2022/10/26 06:17:02;;;;;;;;;;;18.30;94.00;;;;;;4958128;29;19926;-67
2022/10/26 06:19:39;;;;;;;;;;;18.60;94.10;;;;;;4942165;29;19978;-68
2022/10/26 06:22:15;;;;;;;;;;;18.80;94.20;;;;;;4930350;29;20296;-70
2022/10/26 06:24:50;;;;;;;;;;;18.70;94.10;;;;;;4935633;29;19973;-68
2022/10/26 06:27:19;;;;;;;;;;;18.50;94.00;;;;;;4939548;29;19930;-68
2022/10/26 06:29:44;;;;;;;;;;;18.40;94.00;;;;;;4940791;29;19949;-67
2022/10/26 06:32:10;;;;;;;;;;;18.50;94.10;;;;;;4940635;29;20614;-68
2022/10/26 06:34:36;;;;;;;;;;;18.80;94.10;;;;;;4940805;29;19927;-68
2022/10/26 06:37:02;;;;;;;;;;;18.40;94.00;;;;;;4940472;29;19926;-68
2022/10/26 06:39:28;;;;;;;;;;;18.60;94.00;;;;;;4940038;29;19977;-68
2022/10/26 06:41:54;;;;;;;;;;;18.50;94.00;;;;;;4940219;29;20389;-68
2022/10/26 06:44:22;;;;;;;;;;;18.10;93.90;;;;;;4955518;28;20447;-69
2022/10/26 06:47:25;;;;;;;;;;;18.50;94.10;;;;;;4931622;28;20467;-68
2022/10/26 06:49:57;;;;;;;;;;;18.40;94.10;;;;;;4885910;29;20442;-71
2022/10/26 06:52:25;;;;;;;;;;;18.50;94.10;;;;;;4884475;29;20483;-70
2022/10/26 06:54:52;;;;;;;;;;;18.40;94.10;;;;;;4892953;29;19928;-70
2022/10/26 06:57:18;;;;;;;;;;;18.80;94.20;;;;;;4905159;29;19928;-70
2022/10/26 06:59:44;;;;;;;;;;;18.60;94.20;;;;;;4891967;29;19936;-70
2022/10/26 07:02:10;;;;;;;;;;;18.80;94.20;;;;;;4913944;29;19964;-70
2022/10/26 07:04:36;;;;;;;;;;;18.70;94.10;;;;;;4899777;29;19934;-70
2022/10/26 07:07:01;;;;;;;;;;;18.50;94.10;;;;;;4882477;29;19927;-70
2022/10/26 07:09:27;;;;;;;;;;;19.10;94.20;;;;;;4893440;29;19938;-70
2022/10/26 07:11:53;;;;;;;;;;;18.80;94.00;;;;;;4898272;29;20053;-70
2022/10/26 07:14:18;;;;;;;;;;;19.10;93.80;;;;;;4879873;29;20338;-69
2022/10/26 07:16:44;;;;;;;;;;;19.00;93.90;;;;;;4893120;29;19927;-70
2022/10/26 07:19:09;;;;;;;;;;;18.90;93.80;;;;;;4893878;29;19938;-70
2022/10/26 07:21:35;;;;;;;;;;;18.70;93.40;;;;;;4899293;29;19927;-70
2022/10/26 07:24:01;;;;;;;;;;;18.90;93.30;;;;;;4879996;29;20289;-70
2022/10/26 07:26:26;;;;;;;;;;;19.10;93.30;;;;;;4929689;29;19934;-70
2022/10/26 07:28:52;;;;;;;;;;;18.70;93.20;;;;;;4906696;29;20014;-70
2022/10/26 07:31:18;;;;;;;;;;;18.90;93.20;;;;;;4910515;29;19942;-69
2022/10/26 07:33:44;;;;;;;;;;;19.20;93.40;;;;;;4937940;29;20017;-70
2022/10/26 07:36:10;;;;;;;;;;;18.90;93.30;;;;;;4918562;29;19927;-70
2022/10/26 07:38:36;;;;;;;;;;;18.90;93.30;;;;;;4919577;29;19974;-70
2022/10/26 07:41:02;;;;;;;;;;;18.90;93.20;;;;;;4919826;29;19933;-68
2022/10/26 07:43:28;;;;;;;;;;;;;;;;;;4918383;29;19926;-67
2022/10/26 07:45:53;;;;;;;;;;;18.70;93.10;;;;;;4934625;29;20296;-67
2022/10/26 07:48:19;;;;;;;;;;;18.90;93.20;;;;;;4903735;29;19931;-67
2022/10/26 07:50:45;;;;;;;;;;;18.80;93.20;;;;;;4904873;29;19930;-68
2022/10/26 07:53:10;;;;;;;;;;;18.80;93.20;;;;;;4925383;29;19934;-67
2022/10/26 07:55:36;;;;;;;;;;;18.80;93.20;;;;;;4938199;29;19930;-67
2022/10/26 07:58:01;;;;;;;;;;;19.10;93.30;;;;;;4939818;29;19922;-66
2022/10/26 08:00:30;;;;;;;;;;;18.80;93.30;;;;;;4938974;29;19933;-65
2022/10/26 08:02:55;;;;;;;;;;;19.10;93.40;;;;;;4957239;29;19926;-66
2022/10/26 08:05:21;;;;;;;;;;;18.60;93.20;;;;;;4919576;29;19934;-66
2022/10/26 08:07:47;;;;;;;;;;;18.90;93.30;;;;;;4947922;28;20001;-65
2022/10/26 08:10:12;;;;;;;;;;;18.90;93.40;;;;;;4938854;29;19974;-66
2022/10/26 08:12:38;;;;;;;;;;;19.00;93.40;;;;;;4939262;29;20021;-65
2022/10/26 08:15:04;;;;;;;;;;;18.90;93.30;;;;;;4955041;28;19933;-65
2022/10/26 08:17:30;;;;;;;;;;;18.90;93.30;;;;;;4938119;29;20336;-65
2022/10/26 08:19:55;;;;;;;;;;;18.90;93.30;;;;;;4955251;29;20021;-66
2022/10/26 08:22:21;;;;;;;;;;;19.00;93.40;;;;;;4955704;28;19974;-66
2022/10/26 08:24:47;;;;;;;;;;;19.20;93.40;;;;;;4956823;29;19927;-66
2022/10/26 08:27:13;;;;;;;;;;;19.10;93.30;;;;;;4937441;28;19931;-66
2022/10/26 08:29:39;;;;;;;;;;;19.00;93.30;;;;;;4937165;29;19978;-65
2022/10/26 08:32:05;;;;;;;;;;;19.40;93.20;;;;;;4890341;28;19926;-65
2022/10/26 08:34:30;;;;;;;;;;;19.30;93.10;;;;;;4939541;29;19930;-66
2022/10/26 08:36:56;;;;;;;;;;;19.30;92.90;;;;;;4956094;28;20372;-65
2022/10/26 08:39:22;;;;;;;;;;;19.40;92.80;;;;;;4953372;28;19930;-66
2022/10/26 08:41:51;;;;;;;;;;;19.60;92.90;;;;;;4955916;28;19934;-66
2022/10/26 08:44:32;;;;;;;;;;;19.70;92.80;;;;;;4920718;29;19933;-66
2022/10/26 08:47:15;;;;;;;;;;;19.70;92.80;;;;;;4956430;29;19926;-66
2022/10/26 08:49:44;;;;;;;;;;;19.90;92.80;;;;;;4955134;28;19934;-66
2022/10/26 08:52:10;;;;;;;;;;;19.80;92.70;;;;;;4943885;28;19931;-66
2022/10/26 08:54:37;;;;;;;;;;;19.90;92.90;;;;;;4919893;29;19927;-65
2022/10/26 08:57:09;;;;;;;;;;;19.50;92.50;;;;;;4930889;29;19979;-66
2022/10/26 08:59:37;;;;;;;;;;;19.90;92.60;;;;;;4920993;29;19926;-65
2022/10/26 09:02:02;;;;;;;;;;;19.70;92.60;;;;;;4955973;29;19927;-66
2022/10/26 09:04:28;;;;;;;;;;;19.90;92.60;;;;;;4955294;28;19926;-66
2022/10/26 09:06:56;;;;;;;;;;;19.70;92.60;;;;;;4956265;29;19949;-66
2022/10/26 09:09:45;;;;;;;;;;;19.80;92.60;;;;;;4955399;29;20034;-66
2022/10/26 09:12:11;;;;;;;;;;;;;;;;;;4877033;29;19928;-65
2022/10/26 09:14:46;;;;;;;;;;;20.00;92.60;;;;;;4879868;29;20032;-65
2022/10/26 09:17:21;;;;;;;;;;;19.90;92.60;;;;;;4862246;29;20349;-65
2022/10/26 09:20:08;;;;;;;;;;;20.10;92.70;;;;;;4878464;29;19935;-66
2022/10/26 09:22:36;;;;;;;;;;;19.80;92.20;;;;;;4862241;29;20286;-66
2022/10/26 09:25:31;;;;;;;;;;;19.70;92.20;;;;;;4878285;29;19928;-66
2022/10/26 09:28:00;;;;;;;;;;;19.90;92.30;;;;;;4876908;29;19932;-65
2022/10/26 09:30:26;;;;;;;;;;;19.70;92.30;;;;;;4862511;29;20290;-66
2022/10/26 09:32:53;;;;;;;;;;;19.70;92.80;;;;;;4877505;29;19928;-66
2022/10/26 09:35:22;;;;;;;;;;;19.70;92.70;;;;;;4862364;29;20031;-66
2022/10/26 09:37:50;;;;;;;;;;;20.00;92.40;;;;;;4877746;29;19928;-66
2022/10/26 09:40:18;;;;;;;;;;;19.90;92.80;;;;;;4873709;29;19949;-66
2022/10/26 09:42:44;;;;;;;;;;;20.00;92.40;;;;;;4889817;29;20382;-66
2022/10/26 09:45:09;;;;;;;;;;;19.90;92.80;;;;;;4877568;29;20019;-66
2022/10/26 09:47:38;;;;;;;;;;;20.00;92.90;;;;;;4878214;29;19960;-66
2022/10/26 09:50:18;;;;;;;;;;;19.80;92.90;;;;;;4948273;29;19926;-66
2022/10/26 09:52:43;;;;;;;;;;;19.70;92.90;;;;;;4939565;29;19926;-65
2022/10/26 09:55:10;;;;;;;;;;;19.80;93.00;;;;;;4957204;28;19930;-65
2022/10/26 09:57:35;;;;;;;;;;;19.90;93.00;;;;;;4959530;29;20423;-65
2022/10/26 10:00:01;;;;;;;;;;;19.80;93.00;;;;;;4925298;29;19927;-66
2022/10/26 10:02:33;;;;;;;;;;;20.00;93.20;;;;;;4958231;29;19926;-66
2022/10/26 10:04:59;;;;;;;;;;;20.00;92.80;;;;;;4948474;29;19974;-66
2022/10/26 10:07:25;;;;;;;;;;;20.00;93.20;;;;;;4958877;28;20340;-66
2022/10/26 10:10:09;;;;;;;;;;;20.20;93.30;;;;;;4925979;29;19926;-66
2022/10/26 10:12:35;;;;;;;;;;;20.20;93.30;;;;;;4938820;28;20372;-66
2022/10/26 10:15:00;;;;;;;;;;;20.20;93.30;;;;;;4942366;29;19926;-66
2022/10/26 10:17:26;;;;;;;;;;;20.10;93.50;;;;;;4925059;29;19933;-66
2022/10/26 10:19:52;;;;;;;;;;;20.30;93.40;;;;;;4941916;29;19979;-66
2022/10/26 10:22:18;;;;;;;;;;;20.40;93.50;;;;;;4957641;28;19997;-66
2022/10/26 10:24:54;;;;;;;;;;;20.10;93.40;;;;;;4941953;29;19934;-66
2022/10/26 10:27:19;;;;;;;;;;;20.30;93.50;;;;;;4940769;29;20009;-66
2022/10/26 10:29:46;;;;;;;;;;;20.30;93.50;;;;;;4958870;29;20082;-66
2022/10/26 10:32:15;;;;;;;;;;;20.30;93.50;;;;;;4940967;29;20025;-66
2022/10/26 10:34:41;;;;;;;;;;;21.00;93.30;;;;;;4959011;29;19932;-66
2022/10/26 10:37:12;;;;;;;;;;;20.60;93.70;;;;;;4954193;28;19926;-66
2022/10/26 10:39:38;;;;;;;;;;;20.60;93.70;;;;;;4921702;29;19933;-64
2022/10/26 10:42:05;;;;;;;;;;;20.50;93.70;;;;;;4927385;28;20021;-64
2022/10/26 10:44:31;;;;;;;;;;;20.60;93.90;;;;;;4924821;28;20354;-65
2022/10/26 10:47:04;;;;;;;;;;;20.70;93.70;;;;;;4938905;28;20014;-66
2022/10/26 10:49:30;;;;;;;;;;;20.80;93.70;;;;;;4957703;28;20021;-65
2022/10/26 10:51:55;;;;;;;;;;;20.70;93.70;;;;;;4941356;29;20017;-67
2022/10/26 10:54:21;;;;;;;;;;;20.80;93.80;;;;;;4940416;29;19927;-66
2022/10/26 10:56:51;;;;;;;;;;;20.80;93.70;;;;;;4958047;29;19926;-66
2022/10/26 10:59:16;;;;;;;;;;;20.70;93.10;;;;;;4937476;29;19926;-65
2022/10/26 11:01:47;;;;;;;;;;;20.90;93.70;;;;;;4958548;29;19934;-66
2022/10/26 11:04:22;;;;;;;;;;;21.00;93.20;;;;;;4924413;29;20392;-67
2022/10/26 11:06:47;;;;;;;;;;;21.00;93.10;;;;;;4957366;29;19933;-69
2022/10/26 11:09:17;;;;;;;;;;;20.90;93.70;;;;;;4939338;29;19930;-66
2022/10/26 11:11:47;;;;;;;;;;;20.90;93.30;;;;;;4921125;29;19933;-67
2022/10/26 11:14:18;;;;;;;;;;;20.80;93.10;;;;;;4923762;29;19927;-66
2022/10/26 11:16:46;;;;;;;;;;;21.20;93.10;;;;;;4939462;29;20013;-69
2022/10/26 11:19:15;;;;;;;;;;;20.80;93.60;;;;;;4922462;28;19970;-66
2022/10/26 11:21:40;;;;;;;;;;;20.90;93.00;;;;;;4951000;29;19948;-67
2022/10/26 11:24:14;;;;;;;;;;;21.00;93.50;;;;;;4957227;28;20009;-69
2022/10/26 11:26:52;;;;;;;;;;;20.80;92.90;;;;;;4925082;29;19927;-68
2022/10/26 11:29:23;;;;;;;;;;;21.10;93.00;;;;;;4924607;29;19926;-66
2022/10/26 11:32:00;;;;;;;;;;;20.70;92.90;;;;;;4920031;29;20127;-66
2022/10/26 11:34:28;;;;;;;;;;;20.80;92.90;;;;;;4957568;29;20013;-67
2022/10/26 11:37:08;;;;;;;;;;;21.20;93.00;;;;;;4957212;29;19926;-66
2022/10/26 11:39:37;;;;;;;;;;;20.70;92.80;;;;;;4923803;29;19927;-66
2022/10/26 11:42:09;;;;;;;;;;;20.90;93.50;;;;;;4938517;29;19980;-68
2022/10/26 11:44:37;;;;;;;;;;;20.80;92.80;;;;;;4956770;29;19926;-67
2022/10/26 11:47:04;;;;;;;;;;;20.90;93.40;;;;;;4916159;28;19926;-68
2022/10/26 11:49:35;;;;;;;;;;;20.80;93.40;;;;;;4935077;28;19982;-66
2022/10/26 11:52:03;;;;;;;;;;;20.80;92.70;;;;;;4933176;29;19930;-66
2022/10/26 11:54:33;;;;;;;;;;;21.00;92.80;;;;;;4962567;28;19930;-66
2022/10/26 11:56:58;;;;;;;;;;;20.90;93.10;;;;;;4936762;29;19930;-69
2022/10/26 11:59:25;;;;;;;;;;;20.90;93.10;;;;;;4916360;29;20376;-66
2022/10/26 12:01:59;;;;;;;;;;;21.10;93.10;;;;;;4954025;29;20434;-66
2022/10/26 12:04:27;;;;;;;;;;;21.10;92.30;;;;;;4936978;29;19933;-66
2022/10/26 12:06:53;;;;;;;;;;;21.20;92.90;;;;;;4939769;29;19926;-66
2022/10/26 12:09:29;;;;;;;;;;;21.10;92.80;;;;;;4940153;29;20327;-71
2022/10/26 12:11:57;;;;;;;;;;;21.40;92.90;;;;;;4939522;29;19973;-66
2022/10/26 12:14:42;;;;;;;;;;;21.90;92.80;;;;;;4961541;28;19926;-68
2022/10/26 12:17:12;;;;;;;;;;;22.50;91.60;;;;;;4938890;29;19927;-69
2022/10/26 12:19:40;;;;;;;;;;;23.40;91.00;;;;;;4939389;29;19930;-66
2022/10/26 12:22:15;;;;;;;;;;;23.80;90.90;;;;;;4956757;29;19922;-66
2022/10/26 12:24:45;;;;;;;;;;;24.00;90.30;;;;;;4971459;28;19930;-66
2022/10/26 12:27:30;;;;;;;;;;;24.40;88.00;;;;;;4937947;29;20057;-66
2022/10/26 12:30:14;;;;;;;;;;;24.80;87.00;;;;;;4937404;29;19934;-66
2022/10/26 12:32:40;;;;;;;;;;;25.60;86.50;;;;;;4937448;29;19933;-70
2022/10/26 12:35:24;;;;;;;;;;;25.00;86.20;;;;;;4937818;29;19927;-68
2022/10/26 12:37:50;;;;;;;;;;;25.50;84.50;;;;;;4956552;29;20295;-68
2022/10/26 12:40:34;;;;;;;;;;;25.70;84.70;;;;;;4956347;29;19934;-71
2022/10/26 12:43:12;;;;;;;;;;;25.10;83.10;;;;;;4956896;29;20287;-69
2022/10/26 12:45:37;;;;;;;;;;;24.40;83.50;;;;;;4939101;29;19933;-70
2022/10/26 12:48:03;;;;;;;;;;;24.50;85.70;;;;;;4954102;29;20319;-67
2022/10/26 12:50:29;;;;;;;;;;;24.10;86.50;;;;;;4956129;29;19931;-68
2022/10/26 12:52:54;;;;;;;;;;;23.80;87.00;;;;;;4938825;29;19933;-66
2022/10/26 12:55:20;;;;;;;;;;;23.10;87.70;;;;;;4955220;29;19926;-66
2022/10/26 12:57:46;;;;;;;;;;;23.00;88.10;;;;;;4955497;29;19930;-66
2022/10/26 13:00:12;;;;;;;;;;;22.70;88.70;;;;;;4956536;29;19934;-65
2022/10/26 13:02:56;;;;;;;;;;;22.80;89.80;;;;;;4939066;29;19933;-66
2022/10/26 13:05:25;;;;;;;;;;;22.10;88.80;;;;;;4951941;29;19969;-66
2022/10/26 13:07:51;;;;;;;;;;;22.20;89.60;;;;;;4939007;29;19927;-66
2022/10/26 13:10:18;;;;;;;;;;;22.20;90.60;;;;;;4929346;29;20398;-65
2022/10/26 13:12:49;;;;;;;;;;;22.10;90.90;;;;;;4930828;29;19927;-66
2022/10/26 13:15:19;;;;;;;;;;;21.60;90.40;;;;;;4919696;29;19927;-65
2022/10/26 13:17:55;;;;;;;;;;;21.80;90.70;;;;;;4941120;29;19930;-65
2022/10/26 13:20:21;;;;;;;;;;;21.60;90.80;;;;;;4916839;29;20006;-65
2022/10/26 13:22:47;;;;;;;;;;;21.40;91.50;;;;;;4949116;28;20009;-65
2022/10/26 13:25:17;;;;;;;;;;;21.50;91.90;;;;;;4944013;29;19929;-66
2022/10/26 13:27:43;;;;;;;;;;;21.20;91.90;;;;;;4955375;29;19926;-65
2022/10/26 13:30:11;;;;;;;;;;;21.00;92.00;;;;;;4954618;29;20292;-65
2022/10/26 13:32:41;;;;;;;;;;;21.20;92.20;;;;;;4938329;29;20388;-66
2022/10/26 13:35:13;;;;;;;;;;;21.30;91.80;;;;;;4953596;29;20065;-65
2022/10/26 13:37:40;;;;;;;;;;;20.70;91.70;;;;;;4933503;29;19981;-65
2022/10/26 13:40:06;;;;;;;;;;;20.90;92.60;;;;;;4936408;29;19930;-65
2022/10/26 13:42:32;;;;;;;;;;;19.70;92.10;;;;;;4937894;29;20303;-65
2022/10/26 13:45:00;;;;;;;;;;;20.80;92.80;;;;;;4922103;29;20048;-65
2022/10/26 13:47:27;;;;;;;;;;;21.10;93.00;;;;;;4938637;29;19927;-65
2022/10/26 13:49:53;;;;;;;;;;;20.80;93.00;;;;;;4937456;29;19926;-66
2022/10/26 13:52:22;;;;;;;;;;;20.90;93.10;;;;;;4955202;28;19965;-65
2022/10/26 13:54:58;;;;;;;;;;;20.80;93.10;;;;;;4921131;29;20017;-65
2022/10/26 13:57:28;;;;;;;;;;;20.70;92.90;;;;;;4915821;29;20069;-66
2022/10/26 13:59:54;;;;;;;;;;;20.70;92.60;;;;;;4935931;29;19927;-66
2022/10/26 14:02:23;;;;;;;;;;;20.80;93.30;;;;;;4937405;28;20375;-67
2022/10/26 14:04:53;;;;;;;;;;;20.50;92.60;;;;;;4922292;29;19930;-66
2022/10/26 14:07:21;;;;;;;;;;;20.50;92.70;;;;;;4937622;29;19930;-66
2022/10/26 14:09:51;;;;;;;;;;;19.10;92.90;;;;;;4955625;29;19927;-65
2022/10/26 14:12:16;;;;;;;;;;;20.70;92.80;;;;;;4955517;29;19927;-67
2022/10/26 14:14:42;;;;;;;;;;;20.60;93.30;;;;;;4922606;29;19931;-67
2022/10/26 14:17:13;;;;;;;;;;;20.50;93.30;;;;;;4955263;29;20446;-68
2022/10/26 14:19:39;;;;;;;;;;;20.70;93.50;;;;;;4921967;29;19938;-69
2022/10/26 14:22:05;;;;;;;;;;;20.50;93.40;;;;;;4955253;29;20017;-69
2022/10/26 14:24:31;;;;;;;;;;;20.70;93.40;;;;;;4970345;28;19926;-67